createdAt,value
2022-10-22T00:01:37.684Z,79248.94
2022-10-22T00:04:07.268Z,79272.19
2022-10-22T00:06:36.397Z,79252.91
2022-10-22T00:09:05.249Z,79243.09
2022-10-22T00:11:34.277Z,79258.47
2022-10-22T00:14:03.056Z,79257.91
2022-10-22T00:16:32.188Z,79261.91
2022-10-22T00:19:00.959Z,79260.00
2022-10-22T00:21:30.174Z,79213.03
2022-10-22T00:23:58.807Z,79273.31
2022-10-22T00:26:27.729Z,79279.28
2022-10-22T00:28:56.666Z,79268.03
2022-10-22T00:31:25.667Z,79265.38
2022-10-22T00:33:54.313Z,79292.53
2022-10-22T00:36:23.976Z,79270.03
2022-10-22T00:38:52.572Z,79289.88
2022-10-22T00:41:21.585Z,79281.84
2022-10-22T00:44:34.698Z,79297.72
2022-10-22T00:47:03.927Z,79290.44
2022-10-22T00:49:32.527Z,79289.06
2022-10-22T00:52:01.496Z,79287.13
2022-10-22T00:54:30.098Z,79279.78
2022-10-22T00:56:58.898Z,79274.41
2022-10-22T00:59:27.647Z,79281.59
2022-10-22T01:01:56.486Z,79292.88
2022-10-22T01:04:25.217Z,79296.13
2022-10-22T01:06:54.068Z,79279.56
2022-10-22T01:09:37.569Z,79298.75
2022-10-22T01:12:27.610Z,79299.44
2022-10-22T01:15:09.196Z,79308.00
2022-10-22T01:17:54.388Z,79288.78
2022-10-22T01:20:40.494Z,79314.66
2022-10-22T01:23:15.509Z,79313.28
2022-10-22T01:26:05.878Z,79302.50
2022-10-22T01:28:56.371Z,79316.69
2022-10-22T01:31:27.739Z,79323.13
2022-10-22T01:33:57.032Z,79308.22
2022-10-22T01:36:26.389Z,79315.09
2022-10-22T01:38:57.314Z,79309.53
2022-10-22T01:41:28.330Z,79328.91
2022-10-22T01:43:57.902Z,79331.13
2022-10-22T01:46:29.360Z,79302.13
2022-10-22T01:49:18.937Z,79324.16
2022-10-22T01:52:27.025Z,79333.00
2022-10-22T01:55:04.884Z,79330.53
2022-10-22T01:58:00.806Z,79340.00
2022-10-22T02:00:30.176Z,79313.34
2022-10-22T02:03:24.010Z,79320.06
2022-10-22T02:06:00.724Z,79325.94
2022-10-22T02:08:34.690Z,79339.19
2022-10-22T02:11:05.795Z,79329.03
2022-10-22T02:14:02.570Z,79338.38
2022-10-22T02:16:45.856Z,79354.03
2022-10-22T02:19:26.384Z,79349.66
2022-10-22T02:21:56.496Z,79338.69
2022-10-22T02:24:26.506Z,79346.31
2022-10-22T02:27:25.752Z,79360.41
2022-10-22T02:30:10.374Z,79352.19
2022-10-22T02:32:52.839Z,79361.41
2022-10-22T02:35:25.675Z,79353.41
2022-10-22T02:37:57.314Z,79367.53
2022-10-22T02:40:27.325Z,79356.69
2022-10-22T02:42:56.011Z,79357.56
2022-10-22T02:45:24.901Z,79367.78
2022-10-22T02:47:53.917Z,79364.88
2022-10-22T02:50:22.641Z,79367.78
2022-10-22T02:52:51.813Z,79364.09
2022-10-22T02:55:21.507Z,79373.09
2022-10-22T02:57:50.122Z,79375.38
2022-10-22T03:00:19.804Z,79391.34
2022-10-22T03:02:48.570Z,79390.75
2022-10-22T03:05:17.884Z,79380.66
2022-10-22T03:07:47.196Z,79386.38
2022-10-22T03:10:16.120Z,79390.84
2022-10-22T03:12:44.775Z,79392.00
2022-10-22T03:15:13.727Z,79378.72
2022-10-22T03:17:42.863Z,79390.16
2022-10-22T03:20:12.159Z,79406.59
2022-10-22T03:22:43.804Z,79381.38
2022-10-22T03:25:16.798Z,79396.13
2022-10-22T03:27:48.070Z,79410.31
2022-10-22T03:30:17.331Z,79339.19
2022-10-22T03:32:45.946Z,79403.53
2022-10-22T03:35:15.019Z,79391.41
2022-10-22T03:37:44.167Z,79408.19
2022-10-22T03:40:14.324Z,79405.53
2022-10-22T03:42:43.978Z,79410.75
2022-10-22T03:45:13.164Z,79427.53
2022-10-22T03:47:42.199Z,79423.38
2022-10-22T03:50:11.974Z,79426.03
2022-10-22T03:52:41.366Z,79443.00
2022-10-22T03:55:10.650Z,79422.19
2022-10-22T03:57:39.718Z,79429.06
2022-10-22T04:00:10.149Z,79433.81
2022-10-22T04:02:39.775Z,79449.53
2022-10-22T04:05:08.998Z,79444.13
2022-10-22T04:07:38.358Z,79454.22
2022-10-22T04:10:08.380Z,79430.22
2022-10-22T04:12:37.119Z,79442.31
2022-10-22T04:15:06.591Z,79445.09
2022-10-22T04:17:39.371Z,79427.09
2022-10-22T04:20:09.052Z,79439.06
2022-10-22T04:22:38.586Z,79463.75
2022-10-22T04:25:07.987Z,79450.25
2022-10-22T04:27:37.716Z,79449.72
2022-10-22T04:30:07.618Z,79441.94
2022-10-22T04:32:36.523Z,79467.03
2022-10-22T04:35:05.603Z,79457.72
2022-10-22T04:37:34.996Z,79453.09
2022-10-22T04:40:04.155Z,79450.91
2022-10-22T04:42:33.145Z,79457.41
2022-10-22T04:45:01.896Z,79469.63
2022-10-22T04:47:30.861Z,79467.03
2022-10-22T04:49:59.540Z,79459.72
2022-10-22T04:52:28.407Z,79436.88
2022-10-22T04:54:57.293Z,79399.91
2022-10-22T04:57:26.191Z,79466.63
2022-10-22T04:59:54.916Z,79475.63
2022-10-22T05:02:24.230Z,79450.81
2022-10-22T05:04:55.228Z,79476.19
2022-10-22T05:07:24.954Z,79436.50
2022-10-22T05:09:54.865Z,79451.69
2022-10-22T05:12:23.917Z,79473.22
2022-10-22T05:14:53.369Z,79463.63
2022-10-22T05:17:22.106Z,79472.03
2022-10-22T05:19:50.746Z,79475.81
2022-10-22T05:22:19.474Z,79475.16
2022-10-22T05:24:49.936Z,79472.19
2022-10-22T05:29:48.362Z,79469.41
2022-10-22T05:32:17.842Z,79461.72
2022-10-22T05:34:46.462Z,79468.25
2022-10-22T05:37:15.423Z,79449.75
2022-10-22T05:39:44.046Z,79480.13
2022-10-22T05:42:12.916Z,79446.09
2022-10-22T05:44:43.189Z,79467.22
2022-10-22T05:47:12.243Z,79452.28
2022-10-22T05:49:40.914Z,79426.97
2022-10-22T05:52:09.788Z,79464.19
2022-10-22T05:54:38.437Z,79463.13
2022-10-22T05:57:07.226Z,79460.84
2022-10-22T05:59:37.004Z,79468.16
2022-10-22T06:02:07.162Z,79485.47
2022-10-22T06:04:37.864Z,79474.97
2022-10-22T06:07:06.706Z,79461.00
2022-10-22T06:09:38.675Z,79442.56
2022-10-22T06:12:11.765Z,79461.19
2022-10-22T06:14:40.726Z,79470.69
2022-10-22T06:17:10.685Z,79468.06
2022-10-22T06:19:40.166Z,79456.72
2022-10-22T06:22:08.908Z,79459.94
2022-10-22T06:24:40.431Z,79441.00
2022-10-22T06:27:12.165Z,79454.84
2022-10-22T06:29:40.917Z,79448.47
2022-10-22T06:32:09.711Z,79454.06
2022-10-22T06:34:38.410Z,79458.34
2022-10-22T06:37:07.428Z,79447.44
2022-10-22T06:39:35.990Z,79443.03
2022-10-22T06:42:05.740Z,79446.31
2022-10-22T06:44:36.979Z,79449.88
2022-10-22T06:47:06.773Z,79448.56
2022-10-22T06:49:35.584Z,79447.13
2022-10-22T06:52:04.555Z,79440.72
2022-10-22T06:54:33.660Z,79447.84
2022-10-22T06:57:02.855Z,79451.47
2022-10-22T06:59:31.556Z,79438.00
2022-10-22T07:02:00.632Z,79446.84
2022-10-22T07:04:29.300Z,79425.84
2022-10-22T07:06:58.377Z,79448.03
2022-10-22T07:09:27.659Z,79440.41
2022-10-22T07:11:56.533Z,79441.44
2022-10-22T07:14:25.126Z,79440.72
2022-10-22T07:16:54.154Z,79428.84
2022-10-22T07:19:23.036Z,79448.03
2022-10-22T07:21:51.820Z,79444.38
2022-10-22T07:24:20.634Z,79430.94
2022-10-22T07:26:49.499Z,79428.34
2022-10-22T07:29:18.342Z,79398.84
2022-10-22T07:31:47.350Z,79422.31
2022-10-22T07:34:16.219Z,79427.00
2022-10-22T07:36:45.063Z,79419.50
2022-10-22T07:39:14.183Z,79415.00
2022-10-22T07:41:43.028Z,79403.22
2022-10-22T07:44:11.669Z,79420.66
2022-10-22T07:46:41.583Z,79384.50
2022-10-22T07:49:11.656Z,79377.56
2022-10-22T07:51:40.333Z,79398.50
2022-10-22T07:54:09.671Z,79395.78
2022-10-22T07:56:38.361Z,79407.34
2022-10-22T07:59:07.438Z,79404.34
2022-10-22T08:01:36.283Z,79365.13
2022-10-22T08:04:05.429Z,79390.09
2022-10-22T08:06:34.103Z,79395.50
2022-10-22T08:09:03.491Z,79391.44
2022-10-22T08:11:34.549Z,79378.50
2022-10-22T08:14:04.482Z,79378.22
2022-10-22T08:16:33.791Z,79371.97
2022-10-22T08:19:02.736Z,79345.13
2022-10-22T08:21:31.567Z,79368.38
2022-10-22T08:24:00.498Z,79367.03
2022-10-22T08:26:29.166Z,79357.69
2022-10-22T08:28:58.237Z,79359.09
2022-10-22T08:31:26.921Z,79354.84
2022-10-22T08:33:55.953Z,79360.34
2022-10-22T08:36:25.254Z,79353.41
2022-10-22T08:38:54.059Z,79358.34
2022-10-22T08:41:24.914Z,79347.44
2022-10-22T08:44:18.086Z,79352.44
2022-10-22T08:47:22.353Z,79349.31
2022-10-22T08:49:52.039Z,79349.75
2022-10-22T08:52:21.934Z,79344.91
2022-10-22T08:54:57.403Z,79327.81
2022-10-22T08:57:28.771Z,79337.34
2022-10-22T09:00:32.934Z,79337.38
2022-10-22T09:03:23.356Z,79333.91
2022-10-22T09:06:08.723Z,79336.88
2022-10-22T09:08:40.286Z,79322.59
2022-10-22T09:11:26.120Z,79321.59
2022-10-22T09:13:56.825Z,79320.59
2022-10-22T09:16:35.519Z,79320.28
2022-10-22T09:19:43.224Z,79317.53
2022-10-22T09:22:32.043Z,79307.41
2022-10-22T09:25:13.460Z,79318.63
2022-10-22T09:27:42.703Z,79318.09
2022-10-22T09:30:18.924Z,79310.66
2022-10-22T09:32:49.211Z,79311.44
2022-10-22T09:35:24.321Z,79312.59
2022-10-22T09:37:57.365Z,79292.94
2022-10-22T09:40:26.067Z,79295.28
2022-10-22T09:42:54.737Z,79294.63
2022-10-22T09:45:27.096Z,79314.38
2022-10-22T09:48:32.980Z,79309.81
2022-10-22T09:51:23.184Z,79297.91
2022-10-22T09:54:02.575Z,79283.97
2022-10-22T09:56:42.760Z,79291.31
2022-10-22T09:59:19.273Z,79300.97
2022-10-22T10:01:48.277Z,79285.94
2022-10-22T10:04:17.633Z,79290.59
2022-10-22T10:06:46.576Z,79293.94
2022-10-22T10:09:24.061Z,79291.81
2022-10-22T10:12:07.703Z,79291.38
2022-10-22T10:15:02.419Z,79292.84
2022-10-22T10:17:55.175Z,79280.41
2022-10-22T10:20:42.054Z,79299.97
2022-10-22T10:23:33.372Z,79290.50
2022-10-22T10:26:05.991Z,79289.84
2022-10-22T10:28:34.981Z,79300.59
2022-10-22T10:31:32.488Z,79294.69
2022-10-22T10:34:26.924Z,79276.13
2022-10-22T10:37:10.766Z,79295.50
2022-10-22T10:40:09.277Z,79288.03
2022-10-22T10:42:44.099Z,79294.50
2022-10-22T10:45:19.243Z,79296.63
2022-10-22T10:48:03.053Z,79290.66
2022-10-22T10:51:07.046Z,79296.56
2022-10-22T10:54:01.077Z,79292.59
2022-10-22T10:56:50.962Z,79292.09
2022-10-22T11:00:00.046Z,79300.28
2022-10-22T11:02:58.340Z,79284.16
2022-10-22T11:05:48.441Z,79296.88
2022-10-22T11:08:29.069Z,79301.81
2022-10-22T11:11:21.059Z,79298.13
2022-10-22T11:13:54.083Z,79297.16
2022-10-22T11:16:40.882Z,79292.91
2022-10-22T11:19:53.906Z,79291.88
2022-10-22T11:22:31.660Z,79300.25
2022-10-22T11:25:28.796Z,79302.59
2022-10-22T11:28:12.733Z,79288.59
2022-10-22T11:30:44.306Z,79297.97
2022-10-22T11:33:19.533Z,79297.34
2022-10-22T11:35:50.291Z,79295.69
2022-10-22T11:38:25.305Z,79303.88
2022-10-22T11:41:06.448Z,79299.56
2022-10-22T11:43:54.045Z,79291.06
2022-10-22T11:46:22.878Z,79301.94
2022-10-22T11:49:17.890Z,79286.53
2022-10-22T11:51:48.240Z,79299.34
2022-10-22T11:54:45.910Z,79286.56
2022-10-22T11:57:22.733Z,79293.25
2022-10-22T11:59:53.412Z,79290.44
2022-10-22T12:05:44.095Z,79282.13
2022-10-22T12:08:26.808Z,79296.47
2022-10-22T12:11:15.038Z,79298.00
2022-10-22T12:14:01.137Z,79293.16
2022-10-22T12:16:57.585Z,79285.31
2022-10-22T12:19:31.493Z,79291.66
2022-10-22T12:22:10.201Z,79300.69
2022-10-22T12:24:45.965Z,79275.72
2022-10-22T12:27:37.196Z,79301.13
2022-10-22T12:30:25.049Z,79294.03
2022-10-22T12:33:01.540Z,79307.56
2022-10-22T12:35:33.291Z,79302.47
2022-10-22T12:38:04.400Z,79290.72
2022-10-22T12:40:36.673Z,79315.31
2022-10-22T12:43:17.653Z,79282.31
2022-10-22T12:45:49.381Z,79311.59
2022-10-22T12:48:29.678Z,79315.06
2022-10-22T12:51:03.198Z,79315.16
2022-10-22T12:53:34.324Z,79312.63
2022-10-22T12:56:11.829Z,79321.22
2022-10-22T12:58:54.144Z,79315.34
2022-10-22T13:01:23.289Z,79283.00
2022-10-22T13:04:04.886Z,79328.56
2022-10-22T13:06:37.420Z,79329.88
2022-10-22T13:09:15.243Z,79324.56
2022-10-22T13:12:02.539Z,79316.06
2022-10-22T13:14:35.192Z,79337.31
2022-10-22T13:17:39.522Z,79336.19
2022-10-22T13:20:24.973Z,79331.75
2022-10-22T13:22:56.954Z,79339.16
2022-10-22T13:25:29.549Z,79328.72
2022-10-22T13:28:07.824Z,79344.72
2022-10-22T13:30:39.065Z,79341.47
2022-10-22T13:33:30.949Z,79334.31
2022-10-22T13:36:00.205Z,79347.63
2022-10-22T13:38:30.121Z,79354.25
2022-10-22T13:41:00.397Z,79339.88
2022-10-22T13:43:30.007Z,79330.84
2022-10-22T13:46:02.645Z,79357.44
2022-10-22T13:48:32.355Z,79323.94
2022-10-22T13:51:01.279Z,79358.59
2022-10-22T13:53:32.182Z,79357.28
2022-10-22T13:56:01.958Z,79357.44
2022-10-22T13:58:30.737Z,79352.91
2022-10-22T14:01:03.531Z,79353.53
2022-10-22T14:03:35.475Z,79372.72
2022-10-22T14:06:04.608Z,79353.66
2022-10-22T14:08:33.590Z,79363.69
2022-10-22T14:11:02.586Z,79365.03
2022-10-22T14:13:31.349Z,79365.22
2022-10-22T14:16:00.495Z,79377.88
2022-10-22T14:18:32.616Z,79362.06
2022-10-22T14:21:11.383Z,79369.41
2022-10-22T14:23:42.472Z,79380.78
2022-10-22T14:26:21.942Z,79379.44
2022-10-22T14:31:43.422Z,79386.19
2022-10-22T14:34:17.657Z,79380.31
2022-10-22T14:36:46.829Z,79371.81
2022-10-22T14:39:15.797Z,79366.47
2022-10-22T14:41:45.179Z,79371.13
2022-10-22T14:44:15.035Z,79382.47
2022-10-22T14:46:45.229Z,79380.41
2022-10-22T14:49:14.527Z,79384.34
2022-10-22T14:51:43.947Z,79394.94
2022-10-22T14:54:12.806Z,79390.31
2022-10-22T14:56:41.831Z,79347.91
2022-10-22T14:59:10.875Z,79381.06
2022-10-22T15:01:40.409Z,79388.31
2022-10-22T15:04:09.483Z,79391.00
2022-10-22T15:06:38.301Z,79385.75
2022-10-22T15:09:07.637Z,79363.22
2022-10-22T15:11:36.427Z,79377.09
2022-10-22T15:14:05.511Z,79370.47
2022-10-22T15:16:34.301Z,79353.94
2022-10-22T15:19:03.628Z,79363.13
2022-10-22T15:21:32.531Z,79361.91
2022-10-22T15:24:02.658Z,79374.53
2022-10-22T15:26:31.511Z,79396.44
2022-10-22T15:29:00.940Z,79389.91
2022-10-22T15:31:48.356Z,79394.63
2022-10-22T15:34:25.867Z,79404.53
2022-10-22T15:36:57.601Z,79406.56
2022-10-22T15:39:27.269Z,79404.38
2022-10-22T15:41:56.815Z,79401.72
2022-10-22T15:44:29.205Z,79376.59
2022-10-22T15:46:58.731Z,79402.50
2022-10-22T15:49:29.639Z,79395.88
2022-10-22T15:51:58.790Z,79382.53
2022-10-22T15:54:30.140Z,79389.06
2022-10-22T15:57:00.423Z,79379.72
2022-10-22T15:59:30.339Z,79404.16
2022-10-22T16:01:59.202Z,79407.44
2022-10-22T16:04:28.341Z,79404.09
2022-10-22T16:06:59.122Z,79404.78
2022-10-22T16:09:29.269Z,79378.94
2022-10-22T16:11:58.395Z,79372.25
2022-10-22T16:14:27.355Z,79401.41
2022-10-22T16:16:58.022Z,79375.59
2022-10-22T16:19:27.483Z,79398.03
2022-10-22T16:21:58.071Z,79380.66
2022-10-22T16:24:27.292Z,79388.56
2022-10-22T16:26:56.260Z,79399.00
2022-10-22T16:29:26.252Z,79406.31
2022-10-22T16:32:50.359Z,79406.38
2022-10-22T16:39:19.420Z,79390.41
2022-10-22T16:41:48.465Z,79386.63
2022-10-22T16:44:17.177Z,79392.56
2022-10-22T16:46:45.972Z,79405.88
2022-10-22T16:49:14.668Z,79374.72
2022-10-22T16:51:43.833Z,79391.28
2022-10-22T16:54:15.007Z,79380.00
2022-10-22T16:56:43.892Z,79395.28
2022-10-22T16:59:12.490Z,79384.03
2022-10-22T17:01:42.298Z,79382.03
2022-10-22T17:04:11.623Z,79392.72
2022-10-22T17:06:40.741Z,79401.97
2022-10-22T17:09:10.147Z,79385.38
2022-10-22T17:11:42.465Z,79388.03
2022-10-22T17:14:13.314Z,79336.47
2022-10-22T17:17:00.616Z,79400.72
2022-10-22T17:19:31.161Z,79363.63
2022-10-22T17:21:59.748Z,79390.72
2022-10-22T17:24:28.503Z,79356.28
2022-10-22T17:26:57.497Z,79387.44
2022-10-22T17:29:26.948Z,79364.88
2022-10-22T17:31:55.557Z,79378.72
2022-10-22T17:34:25.283Z,79369.53
2022-10-22T17:36:53.881Z,79380.72
2022-10-22T17:39:22.612Z,79376.13
2022-10-22T17:41:51.228Z,79338.44
2022-10-22T17:44:20.197Z,79362.94
2022-10-22T17:46:50.499Z,79364.94
2022-10-22T17:49:21.816Z,79378.16
2022-10-22T17:51:50.949Z,79356.94
2022-10-22T17:54:39.190Z,79374.81
2022-10-22T17:57:08.165Z,79368.28
2022-10-22T17:59:37.286Z,79365.63
2022-10-22T18:02:06.332Z,79359.59
2022-10-22T18:04:35.430Z,79359.59
2022-10-22T18:07:04.228Z,79347.63
2022-10-22T18:09:33.065Z,79354.22
2022-10-22T18:12:02.355Z,79362.81
2022-10-22T18:14:30.923Z,79344.28
2022-10-22T18:17:02.507Z,79356.81
2022-10-22T18:19:31.674Z,79334.31
2022-10-22T18:22:01.550Z,79357.47
2022-10-22T18:24:30.815Z,79296.56
2022-10-22T18:26:59.479Z,79335.63
2022-10-22T18:29:28.362Z,79323.72
2022-10-22T18:31:57.400Z,79325.06
2022-10-22T18:34:26.287Z,79344.28
2022-10-22T18:36:54.968Z,79338.94
2022-10-22T18:39:23.877Z,79295.25
2022-10-22T18:41:52.566Z,79335.56
2022-10-22T18:44:21.501Z,79332.81
2022-10-22T18:46:50.311Z,79324.78
2022-10-22T18:49:20.410Z,79312.78
2022-10-22T18:51:53.599Z,79326.50
2022-10-22T18:54:24.472Z,79327.13
2022-10-22T18:56:58.023Z,79321.03
2022-10-22T18:59:29.179Z,79320.19
2022-10-22T19:02:02.322Z,79298.94
2022-10-22T19:04:37.836Z,79314.56
2022-10-22T19:07:07.005Z,79309.81
2022-10-22T19:09:35.628Z,79315.00
2022-10-22T19:12:05.036Z,79309.72
2022-10-22T19:14:34.407Z,79315.09
2022-10-22T19:17:03.739Z,79292.22
2022-10-22T19:19:32.371Z,79260.50
2022-10-22T19:22:01.270Z,79293.63
2022-10-22T19:24:30.076Z,79294.34
2022-10-22T19:27:00.215Z,79282.34
2022-10-22T19:29:29.119Z,79284.41
2022-10-22T19:31:57.822Z,79287.72
2022-10-22T19:34:26.803Z,79301.63
2022-10-22T19:36:55.520Z,79301.81
2022-10-22T19:39:24.287Z,79290.75
2022-10-22T19:41:52.904Z,79282.25
2022-10-22T19:44:21.842Z,79286.91
2022-10-22T19:46:50.554Z,79273.69
2022-10-22T19:49:22.213Z,79275.00
2022-10-22T19:51:51.954Z,79279.00
2022-10-22T19:54:21.261Z,79290.19
2022-10-22T19:56:51.798Z,79283.59
2022-10-22T19:59:27.373Z,79259.13
2022-10-22T20:01:58.646Z,79273.69
2022-10-22T20:04:29.140Z,79286.88
2022-10-22T20:06:59.225Z,79205.56
2022-10-22T20:09:27.883Z,79275.00
2022-10-22T20:11:56.764Z,79253.19
2022-10-22T20:14:25.380Z,79263.03
2022-10-22T20:16:54.164Z,79277.63
2022-10-22T20:19:26.960Z,79227.38
2022-10-22T20:21:56.345Z,79268.97
2022-10-22T20:24:25.268Z,79235.78
2022-10-22T20:26:54.230Z,79267.34
2022-10-22T20:29:22.874Z,79258.66
2022-10-22T20:31:51.865Z,79256.13
2022-10-22T20:34:20.550Z,79247.50
2022-10-22T20:36:49.407Z,79258.72
2022-10-22T20:39:18.096Z,79257.41
2022-10-22T20:41:47.142Z,79247.41
2022-10-22T20:44:19.605Z,79262.59
2022-10-22T20:46:48.648Z,79255.25
2022-10-22T20:49:18.691Z,79262.44
2022-10-22T20:51:47.500Z,79241.34
2022-10-22T20:54:17.114Z,79256.38
2022-10-22T20:56:46.524Z,79252.38
2022-10-22T20:59:15.760Z,79256.34
2022-10-22T21:01:49.797Z,79252.75
2022-10-22T21:04:20.853Z,79223.03
2022-10-22T21:06:51.249Z,79260.34
2022-10-22T21:09:20.831Z,79243.16
2022-10-22T21:11:49.650Z,79226.03
2022-10-22T21:14:23.004Z,79239.97
2022-10-22T21:16:52.882Z,79232.78
2022-10-22T21:19:24.227Z,79219.66
2022-10-22T21:21:53.771Z,79228.97
2022-10-22T21:24:25.683Z,79229.81
2022-10-22T21:26:55.071Z,79232.72
2022-10-22T21:29:23.703Z,79227.63
2022-10-22T21:31:54.659Z,79229.69
2022-10-22T21:34:23.424Z,79167.56
2022-10-22T21:36:52.090Z,79235.69
2022-10-22T21:39:21.003Z,79213.25
2022-10-22T21:41:49.573Z,79173.03
2022-10-22T21:44:18.601Z,79201.59
2022-10-22T21:46:47.338Z,79227.44
2022-10-22T21:49:16.096Z,79204.38
2022-10-22T21:51:45.175Z,79223.59
2022-10-22T21:54:15.275Z,79205.75
2022-10-22T21:56:44.031Z,79218.94
2022-10-22T21:59:14.152Z,79196.53
2022-10-22T22:01:42.869Z,79204.44
2022-10-22T22:04:11.934Z,79209.03
2022-10-22T22:06:40.500Z,79220.03
2022-10-22T22:09:09.590Z,79173.63
2022-10-22T22:11:38.294Z,79193.38
2022-10-22T22:14:07.177Z,79181.47
2022-10-22T22:16:36.472Z,79208.06
2022-10-22T22:19:09.157Z,79194.34
2022-10-22T22:21:40.471Z,79216.22
2022-10-22T22:24:12.468Z,79200.88
2022-10-22T22:26:41.709Z,79191.53
2022-10-22T22:29:12.191Z,79192.84
2022-10-22T22:31:41.225Z,79211.31
2022-10-22T22:34:13.754Z,79206.50
2022-10-22T22:36:46.347Z,79204.41
2022-10-22T22:39:20.575Z,79208.38
2022-10-22T22:41:49.628Z,79207.06
2022-10-22T22:44:18.658Z,79186.47
2022-10-22T22:46:47.507Z,79208.97
2022-10-22T22:49:16.179Z,79179.84
2022-10-22T22:51:45.259Z,79189.69
2022-10-22T22:54:14.074Z,79195.69
2022-10-22T22:56:42.939Z,79198.84
2022-10-22T22:59:11.963Z,79204.66
2022-10-22T23:01:41.471Z,79215.34
2022-10-22T23:04:19.798Z,79206.22
2022-10-22T23:06:48.903Z,79212.75
2022-10-22T23:11:52.875Z,79216.41
2022-10-22T23:14:21.643Z,79204.56
2022-10-22T23:16:52.214Z,79219.16
2022-10-22T23:19:24.135Z,79210.56
2022-10-22T23:21:56.810Z,79204.63
2022-10-22T23:24:29.320Z,79215.81
2022-10-22T23:27:02.557Z,79210.56
2022-10-22T23:29:34.306Z,79202.03
2022-10-22T23:32:05.914Z,79207.41
2022-10-22T23:34:34.919Z,79214.00
2022-10-22T23:37:03.813Z,79215.31
2022-10-22T23:39:32.944Z,79202.75
2022-10-22T23:42:01.663Z,79224.59
2022-10-22T23:44:30.658Z,79184.34
2022-10-22T23:46:59.335Z,79177.56
2022-10-22T23:49:28.174Z,79187.44
2022-10-22T23:51:56.873Z,79224.75
2022-10-22T23:54:25.939Z,79224.22
2022-10-22T23:56:54.669Z,79233.59
2022-10-22T23:59:23.561Z,79225.03
